FMEP/ZSE METAR and TAF weather

Enter ICAO airport designator
Station Type Date Time Source
FMEP METAR 2022/08/13 13:00 UTC NOAA

FMEP 131300Z AUTO 12016KT 9999 OVC050 23/14 Q1020 TEMPO 25012KT


Station Type Date Time Source
FMEP Decoded METAR 2022/08/13 13:00 UTC NOAA

Saint-Pierre, Reunion (FMEP) 21-20S 055-29E 53M
Aug 13, 2022 - 09:00 AM EDT / 2022.08.13 1300 UTC
Wind: from the ESE (120 degrees) at 18 MPH (16 KT):0
Visibility: greater than 7 mile(s):0
Sky conditions: overcast
Temperature: 73 F (23 C)
Dew Point: 57 F (14 C)
Relative Humidity: 56%
Pressure (altimeter): 30.12 in. Hg (1020 hPa)
ob: FMEP 131300Z AUTO 12016KT 9999 OVC050 23/14 Q1020 TEMPO 25012KT
cycle: 13

Station Type Date Time Source
FMEP TAF 2020/08/08 06:00 UTC NOAA

TAF FMEP 080500Z 0806/0815 27010KT 9999 FEW030

Example: see airport list